Map

Track Data

SID SEASON NUMBER BASIN SUBBASIN NAME ISO_TIME NATURE LAT LON WMO_WIND WMO_PRES WMO_AGENCY TRACK_TYPE DIST2LAND LANDFALL IFLAG USA_AGENCY USA_ATCF_ID USA_LAT USA_LON USA_RECORD USA_STATUS USA_WIND USA_PRES USA_SSHS USA_R34_NE USA_R34_SE USA_R34_SW USA_R34_NW USA_R50_NE USA_R50_SE USA_R50_SW USA_R50_NW USA_R64_NE USA_R64_SE USA_R64_SW USA_R64_NW USA_POCI USA_ROCI USA_RMW USA_EYE TOKYO_LAT TOKYO_LON TOKYO_GRADE TOKYO_WIND TOKYO_PRES TOKYO_R50_DIR TOKYO_R50_LONG TOKYO_R50_SHORT TOKYO_R30_DIR TOKYO_R30_LONG TOKYO_R30_SHORT TOKYO_LAND CMA_LAT CMA_LON CMA_CAT CMA_WIND CMA_PRES HKO_LAT HKO_LON HKO_CAT HKO_WIND HKO_PRES NEWDELHI_LAT NEWDELHI_LON NEWDELHI_GRADE NEWDELHI_WIND NEWDELHI_PRES NEWDELHI_CI NEWDELHI_DP NEWDELHI_POCI REUNION_LAT REUNION_LON REUNION_TYPE REUNION_WIND REUNION_PRES REUNION_TNUM REUNION_CI REUNION_RMW REUNION_R34_NE REUNION_R34_SE REUNION_R34_SW REUNION_R34_NW REUNION_R50_NE REUNION_R50_SE REUNION_R50_SW REUNION_R50_NW REUNION_R64_NE REUNION_R64_SE REUNION_R64_SW REUNION_R64_NW BOM_LAT BOM_LON BOM_TYPE BOM_WIND BOM_PRES BOM_TNUM BOM_CI BOM_RMW BOM_R34_NE BOM_R34_SE BOM_R34_SW BOM_R34_NW BOM_R50_NE BOM_R50_SE BOM_R50_SW BOM_R50_NW BOM_R64_NE BOM_R64_SE BOM_R64_SW BOM_R64_NW BOM_ROCI BOM_POCI BOM_EYE BOM_POS_METHOD BOM_PRES_METHOD NADI_LAT NADI_LON NADI_CAT NADI_WIND NADI_PRES WELLINGTON_LAT WELLINGTON_LON WELLINGTON_WIND WELLINGTON_PRES DS824_LAT DS824_LON DS824_STAGE DS824_WIND DS824_PRES TD9636_LAT TD9636_LON TD9636_STAGE TD9636_WIND TD9636_PRES TD9635_LAT TD9635_LON TD9635_WIND TD9635_PRES TD9635_ROCI NEUMANN_LAT NEUMANN_LON NEUMANN_CLASS NEUMANN_WIND NEUMANN_PRES MLC_LAT MLC_LON MLC_CLASS MLC_WIND MLC_PRES USA_GUST BOM_GUST BOM_GUST_PER REUNION_GUST REUNION_GUST_PER USA_SEAHGT USA_SEARAD_NE USA_SEARAD_SE USA_SEARAD_SW USA_SEARAD_NW STORM_SPEED STORM_DIR
1975223N14243 1975 71 EP MM GEORGETTE 1975-08-11 00:00:00 TS 14.0000 -117.500 25 hurdat_epa main 1271 1271 O________OO___ hurdat_epa EP071975 14.0000 -117.500 TD 25 -1 14.0000 -117.500 TC 25 14.0000 -117.500 1 25 6 269
1975223N14243 1975 71 EP MM GEORGETTE 1975-08-11 03:00:00 TS 13.9957 -117.800 main 1290 1290 P________PP___ EP071975 13.9926 -117.800 TD 25 -1 13.9926 -117.800 TC 25 14.0081 -117.798 1 26 6 270
1975223N14243 1975 71 EP MM GEORGETTE 1975-08-11 06:00:00 TS 14.0046 -118.099 25 hurdat_epa main 1311 1311 O________OP___ hurdat_epa EP071975 14.0000 -118.100 TD 25 -1 14.0000 -118.100 TC 25 14.0228 -118.097 1 27 6 274
1975223N14243 1975 71 EP MM GEORGETTE 1975-08-11 09:00:00 TS 14.0382 -118.400 main 1332 1330 P________PP___ EP071975 14.0350 -118.400 TD 27 -1 14.0350 -118.400 TC 27 14.0511 -118.398 1 28 6 279
1975223N14243 1975 71 EP MM GEORGETTE 1975-08-11 12:00:00 TS 14.1000 -118.700 30 hurdat_epa main 1344 1344 O________OO___ hurdat_epa EP071975 14.1000 -118.700 TD 30 -1 14.1000 -118.700 TC 30 14.1000 -118.700 1 30 6 284
1975223N14243 1975 71 EP MM GEORGETTE 1975-08-11 15:00:00 TS 14.1831 -118.995 main 1358 1358 P________PP___ EP071975 14.1849 -118.993 TD 32 -1 14.1849 -118.993 TC 32 14.1757 -119.006 1 31 6 289
1975223N14243 1975 71 EP MM GEORGETTE 1975-08-11 18:00:00 TS 14.2964 -119.304 35 hurdat_epa main 1372 1372 O________OP___ hurdat_epa EP071975 14.3000 -119.300 TS 35 0 14.3000 -119.300 TC 35 14.2822 -119.320 1 32 7 291
1975223N14243 1975 71 EP MM GEORGETTE 1975-08-11 21:00:00 TS 14.4265 -119.644 main 1387 1387 P________PP___ EP071975 14.4275 -119.643 TS 35 0 14.4275 -119.643 TC 35 14.4226 -119.650 1 33 7 294
1975223N14243 1975 71 EP MM GEORGETTE 1975-08-12 00:00:00 TS 14.6000 -120.000 35 hurdat_epa main 1399 1393 O________OO___ hurdat_epa EP071975 14.6000 -120.000 TS 35 0 14.6000 -120.000 TC 35 14.6000 -120.000 2 35 8 301
1975223N14243 1975 71 EP MM GEORGETTE 1975-08-12 03:00:00 TS 14.8298 -120.340 main 1399 1395 P________PP___ EP071975 14.8349 -120.335 TS 37 0 14.8349 -120.335 TC 37 14.8097 -120.358 2 36 8 306
1975223N14243 1975 71 EP MM GEORGETTE 1975-08-12 06:00:00 TS 15.0909 -120.708 40 hurdat_epa main 1399 1397 O________OP___ hurdat_epa EP071975 15.1000 -120.700 TS 40 0 15.1000 -120.700 TC 40 15.0545 -120.740 2 37 9 304
1975223N14243 1975 71 EP MM GEORGETTE 1975-08-12 09:00:00 TS 15.3444 -121.133 main 1409 1406 P________PP___ EP071975 15.3499 -121.128 TS 40 0 15.3499 -121.128 TC 40 15.3221 -121.152 2 38 10 301
1975223N14243 1975 71 EP MM GEORGETTE 1975-08-12 12:00:00 TS 15.6000 -121.600 40 hurdat_epa main 1419 1418 O________OO___ hurdat_epa EP071975 15.6000 -121.600 TS 40 0 15.6000 -121.600 TC 40 15.6000 -121.600 2 40 10 299
1975223N14243 1975 71 EP MM GEORGETTE 1975-08-12 15:00:00 TS 15.8499 -122.084 main 1440 1432 P________PP___ EP071975 15.8424 -122.085 TS 40 0 15.8424 -122.085 TC 40 15.8799 -122.081 2 38 11 298
1975223N14243 1975 71 EP MM GEORGETTE 1975-08-12 18:00:00 TS 16.1130 -122.600 40 hurdat_epa main 1454 1454 O________OP___ hurdat_epa EP071975 16.1000 -122.600 TS 40 0 16.1000 -122.600 TC 40 16.1648 -122.597 2 37 12 299
1975223N14243 1975 71 EP MM GEORGETTE 1975-08-12 21:00:00 TS 16.4084 -123.142 main 1471 1471 P________PP___ EP071975 16.3999 -123.143 TS 37 0 16.3999 -123.143 TC 37 16.4423 -123.140 2 36 12 299
1975223N14243 1975 71 EP MM GEORGETTE 1975-08-13 00:00:00 TS 16.7000 -123.700 35 hurdat_epa main 1498 1498 O________OO___ hurdat_epa EP071975 16.7000 -123.700 TS 35 0 16.7000 -123.700 TC 35 16.7000 -123.700 2 35 12 298
1975223N14243 1975 71 EP MM GEORGETTE 1975-08-13 03:00:00 TS 16.9694 -124.247 main 1519 1519 P________PP___ EP071975 16.9723 -124.243 TS 32 -1 16.9723 -124.243 TC 32 16.9579 -124.264 2 33 12 295
1975223N14243 1975 71 EP MM GEORGETTE 1975-08-13 06:00:00 TS 17.1979 -124.808 30 hurdat_epa main 1544 1544 O________OP___ hurdat_epa EP071975 17.2000 -124.800 TD 30 -1 17.2000 -124.800 TC 30 17.1897 -124.842 2 32 12 290
1975223N14243 1975 71 EP MM GEORGETTE 1975-08-13 09:00:00 TS 17.3793 -125.405 main 1568 1568 P________PP___ EP071975 17.3799 -125.400 TD 30 -1 17.3799 -125.400 TC 30 17.3766 -125.424 2 31 12 285
1975223N14243 1975 71 EP MM GEORGETTE 1975-08-13 12:00:00 TS 17.5000 -126.000 30 hurdat_epa main 1602 1602 O________OO___ hurdat_epa EP071975 17.5000 -126.000 TD 30 -1 17.5000 -126.000 TC 30 17.5000 -126.000 1 30 11 280
1975223N14243 1975 71 EP MM GEORGETTE 1975-08-13 15:00:00 TS 17.5794 -126.559 main 1638 1638 P________PP___ EP071975 17.5873 -126.557 TD 30 -1 17.5873 -126.557 TC 30 17.5477 -126.564 1 30 11 275
1975223N14243 1975 71 EP MM GEORGETTE 1975-08-13 18:00:00 TS 17.5895 -127.103 30 hurdat_epa main 1675 1675 O________OP___ hurdat_epa EP071975 17.6000 -127.100 TD 30 -1 17.6000 -127.100 TC 30 17.5335 -127.116 1 30 11 267
1975223N14243 1975 71 EP MM GEORGETTE 1975-08-13 21:00:00 TS 17.5176 -127.678 main 1729 1729 P________PP___ EP071975 17.5226 -127.680 TD 30 -1 17.5226 -127.680 TC 30 17.4775 -127.660 1 30 11 260
1975223N14243 1975 71 EP MM GEORGETTE 1975-08-14 00:00:00 TS 17.4000 -128.200 30 hurdat_epa main 1775 1775 O________OO___ hurdat_epa EP071975 17.4000 -128.200 TD 30 -1 17.4000 -128.200 TC 30 17.4000 -128.200 1 30 9 257
1975223N14243 1975 71 EP MM GEORGETTE 1975-08-14 03:00:00 TS 17.3148 -128.602 main 1814 1814 P________P____ EP071975 17.3148 -128.602 TD 30 -1 17.3148 -128.602 TC 30 1 7 253
1975223N14243 1975 71 EP MM GEORGETTE 1975-08-14 06:00:00 ET 17.2000 -128.900 30 hurdat_epa main 1845 1845 O________O____ hurdat_epa EP071975 17.2000 -128.900 ET 30 -4 17.2000 -128.900 30 1 6 239
1975223N14243 1975 71 EP MM GEORGETTE 1975-08-14 09:00:00 ET 17.0201 -129.120 main 1876 1876 P________P____ EP071975 17.0201 -129.120 ET 30 -4 17.0201 -129.120 30 1 6 224
1975223N14243 1975 71 EP MM GEORGETTE 1975-08-14 12:00:00 ET 16.8000 -129.300 30 hurdat_epa main 1907 O________O____ hurdat_epa EP071975 16.8000 -129.300 ET 30 -4 16.8000 -129.300 30 6 218

About IBTrACS Database

This database is a web-friendly format of International Best Track Archive for Climate Stewardship (IBTrACS), a global best track data archive curated by NOAA dating back to 1842.

Updated: 2021-10-25